sensor_id;sensor_type;location;lat;lon;timestamp;pressure;altitude;pressure_sealevel;temperature;humidity
72038;BME280;59900;50.788;12.904;2023-02-03T00:01:41;98188.59;;;1.51;98.92
72038;BME280;59900;50.788;12.904;2023-02-03T00:04:06;98184.38;;;1.50;98.97
72038;BME280;59900;50.788;12.904;2023-02-03T00:06:32;98177.66;;;1.47;98.93
72038;BME280;59900;50.788;12.904;2023-02-03T00:08:58;98180.66;;;1.43;99.10
72038;BME280;59900;50.788;12.904;2023-02-03T00:11:25;98176.97;;;1.45;98.90
72038;BME280;59900;50.788;12.904;2023-02-03T00:13:50;98174.25;;;1.47;98.98
72038;BME280;59900;50.788;12.904;2023-02-03T00:16:15;98162.38;;;1.44;99.01
72038;BME280;59900;50.788;12.904;2023-02-03T00:18:41;98169.06;;;1.47;98.79
72038;BME280;59900;50.788;12.904;2023-02-03T00:21:06;98167.69;;;1.43;99.09
72038;BME280;59900;50.788;12.904;2023-02-03T00:23:31;98163.91;;;1.47;99.31
72038;BME280;59900;50.788;12.904;2023-02-03T00:26:05;98158.03;;;1.45;98.96
72038;BME280;59900;50.788;12.904;2023-02-03T00:28:30;98148.50;;;1.45;98.83
72038;BME280;59900;50.788;12.904;2023-02-03T00:30:55;98150.25;;;1.45;99.10
72038;BME280;59900;50.788;12.904;2023-02-03T00:33:21;98139.91;;;1.45;98.91
72038;BME280;59900;50.788;12.904;2023-02-03T00:35:46;98139.91;;;1.45;98.46
72038;BME280;59900;50.788;12.904;2023-02-03T00:38:11;98139.78;;;1.46;98.52
72038;BME280;59900;50.788;12.904;2023-02-03T00:40:36;98130.50;;;1.44;98.92
72038;BME280;59900;50.788;12.904;2023-02-03T00:43:02;98124.59;;;1.42;99.23
72038;BME280;59900;50.788;12.904;2023-02-03T00:45:27;98122.03;;;1.42;99.19
72038;BME280;59900;50.788;12.904;2023-02-03T00:47:52;98117.22;;;1.37;99.31
72038;BME280;59900;50.788;12.904;2023-02-03T00:50:17;98119.00;;;1.37;99.68
72038;BME280;59900;50.788;12.904;2023-02-03T00:52:43;98116.91;;;1.31;99.95
72038;BME280;59900;50.788;12.904;2023-02-03T00:55:08;98108.44;;;1.29;100.00
72038;BME280;59900;50.788;12.904;2023-02-03T00:57:33;98101.38;;;1.31;100.00
72038;BME280;59900;50.788;12.904;2023-02-03T00:59:59;98103.25;;;1.29;100.00
72038;BME280;59900;50.788;12.904;2023-02-03T01:02:24;98109.28;;;1.29;100.00
72038;BME280;59900;50.788;12.904;2023-02-03T01:04:49;98091.69;;;1.33;100.00
72038;BME280;59900;50.788;12.904;2023-02-03T01:07:15;98093.78;;;1.39;100.00
72038;BME280;59900;50.788;12.904;2023-02-03T01:09:40;98090.13;;;1.41;100.00
72038;BME280;59900;50.788;12.904;2023-02-03T01:12:06;98100.13;;;1.46;100.00
72038;BME280;59900;50.788;12.904;2023-02-03T01:14:31;98078.91;;;1.52;100.00
72038;BME280;59900;50.788;12.904;2023-02-03T01:16:57;98069.13;;;1.55;100.00
72038;BME280;59900;50.788;12.904;2023-02-03T01:19:22;98055.78;;;1.60;100.00
72038;BME280;59900;50.788;12.904;2023-02-03T01:21:48;98047.59;;;1.64;100.00
72038;BME280;59900;50.788;12.904;2023-02-03T01:24:13;98040.28;;;1.69;100.00
72038;BME280;59900;50.788;12.904;2023-02-03T01:26:39;98041.53;;;1.75;100.00
72038;BME280;59900;50.788;12.904;2023-02-03T01:29:04;98027.09;;;1.82;100.00
72038;BME280;59900;50.788;12.904;2023-02-03T01:31:35;98018.81;;;1.88;100.00
72038;BME280;59900;50.788;12.904;2023-02-03T01:34:01;98016.78;;;1.92;100.00
72038;BME280;59900;50.788;12.904;2023-02-03T01:36:30;97998.94;;;1.98;100.00
72038;BME280;59900;50.788;12.904;2023-02-03T01:38:56;98009.63;;;2.05;100.00
72038;BME280;59900;50.788;12.904;2023-02-03T01:41:24;98017.13;;;2.08;100.00
72038;BME280;59900;50.788;12.904;2023-02-03T01:43:52;98009.91;;;2.11;100.00
72038;BME280;59900;50.788;12.904;2023-02-03T01:46:30;98016.63;;;2.14;100.00
72038;BME280;59900;50.788;12.904;2023-02-03T01:49:15;98010.09;;;2.19;100.00
72038;BME280;59900;50.788;12.904;2023-02-03T01:51:43;97996.84;;;2.22;100.00
72038;BME280;59900;50.788;12.904;2023-02-03T01:54:13;97976.66;;;2.26;100.00
72038;BME280;59900;50.788;12.904;2023-02-03T01:56:46;98001.25;;;2.32;100.00
72038;BME280;59900;50.788;12.904;2023-02-03T01:59:15;98005.34;;;2.34;100.00
72038;BME280;59900;50.788;12.904;2023-02-03T02:01:41;98000.97;;;2.44;100.00
72038;BME280;59900;50.788;12.904;2023-02-03T02:04:07;97978.59;;;2.53;100.00
72038;BME280;59900;50.788;12.904;2023-02-03T02:06:33;97984.34;;;2.56;100.00
72038;BME280;59900;50.788;12.904;2023-02-03T02:08:58;97967.56;;;2.60;100.00
72038;BME280;59900;50.788;12.904;2023-02-03T02:11:25;97986.41;;;2.62;100.00
72038;BME280;59900;50.788;12.904;2023-02-03T02:13:52;97981.88;;;2.64;100.00
72038;BME280;59900;50.788;12.904;2023-02-03T02:16:36;97989.97;;;2.71;100.00
72038;BME280;59900;50.788;12.904;2023-02-03T02:19:42;97969.22;;;2.80;100.00
72038;BME280;59900;50.788;12.904;2023-02-03T02:22:20;97993.78;;;2.86;100.00
72038;BME280;59900;50.788;12.904;2023-02-03T02:25:23;97997.88;;;2.89;100.00
72038;BME280;59900;50.788;12.904;2023-02-03T02:28:24;97965.38;;;2.94;100.00
72038;BME280;59900;50.788;12.904;2023-02-03T02:31:33;97973.03;;;3.05;100.00
72038;BME280;59900;50.788;12.904;2023-02-03T02:34:23;97954.56;;;3.08;100.00
72038;BME280;59900;50.788;12.904;2023-02-03T02:37:03;97961.38;;;3.09;100.00
72038;BME280;59900;50.788;12.904;2023-02-03T02:39:39;97956.75;;;3.13;100.00
72038;BME280;59900;50.788;12.904;2023-02-03T02:45:18;97970.56;;;3.13;100.00
72038;BME280;59900;50.788;12.904;2023-02-03T02:47:46;97958.25;;;3.15;100.00
72038;BME280;59900;50.788;12.904;2023-02-03T02:50:20;97951.66;;;3.21;100.00
72038;BME280;59900;50.788;12.904;2023-02-03T02:52:49;97957.41;;;3.24;100.00
72038;BME280;59900;50.788;12.904;2023-02-03T02:55:36;97953.16;;;3.23;100.00
72038;BME280;59900;50.788;12.904;2023-02-03T02:58:08;97946.34;;;3.22;100.00
72038;BME280;59900;50.788;12.904;2023-02-03T03:00:35;97937.72;;;3.22;100.00
72038;BME280;59900;50.788;12.904;2023-02-03T03:03:19;97938.13;;;3.27;100.00
72038;BME280;59900;50.788;12.904;2023-02-03T03:05:54;97930.50;;;3.25;100.00
72038;BME280;59900;50.788;12.904;2023-02-03T03:08:23;97926.09;;;3.26;100.00
72038;BME280;59900;50.788;12.904;2023-02-03T03:10:52;97932.94;;;3.27;100.00
72038;BME280;59900;50.788;12.904;2023-02-03T03:13:22;97939.06;;;3.26;100.00
72038;BME280;59900;50.788;12.904;2023-02-03T03:15:50;97933.09;;;3.25;100.00
72038;BME280;59900;50.788;12.904;2023-02-03T03:18:37;97946.88;;;3.26;100.00
72038;BME280;59900;50.788;12.904;2023-02-03T03:21:07;97945.91;;;3.27;100.00
72038;BME280;59900;50.788;12.904;2023-02-03T03:23:38;97938.94;;;3.27;100.00
72038;BME280;59900;50.788;12.904;2023-02-03T03:26:11;97935.41;;;3.28;100.00
72038;BME280;59900;50.788;12.904;2023-02-03T03:28:46;97940.44;;;3.30;100.00
72038;BME280;59900;50.788;12.904;2023-02-03T03:31:12;97938.66;;;3.30;100.00
72038;BME280;59900;50.788;12.904;2023-02-03T03:33:38;97937.72;;;3.31;100.00
72038;BME280;59900;50.788;12.904;2023-02-03T03:36:24;97927.19;;;3.33;100.00
72038;BME280;59900;50.788;12.904;2023-02-03T03:38:56;97934.69;;;3.36;100.00
72038;BME280;59900;50.788;12.904;2023-02-03T03:41:38;97934.41;;;3.39;100.00
72038;BME280;59900;50.788;12.904;2023-02-03T03:44:10;97922.78;;;3.43;100.00
72038;BME280;59900;50.788;12.904;2023-02-03T03:49:36;97943.78;;;3.50;100.00
72038;BME280;59900;50.788;12.904;2023-02-03T03:52:08;97942.72;;;3.52;100.00
72038;BME280;59900;50.788;12.904;2023-02-03T03:54:35;97928.47;;;3.56;100.00
72038;BME280;59900;50.788;12.904;2023-02-03T03:57:06;97930.66;;;3.61;100.00
72038;BME280;59900;50.788;12.904;2023-02-03T03:59:36;97921.88;;;3.62;100.00
72038;BME280;59900;50.788;12.904;2023-02-03T04:02:03;97927.47;;;3.67;100.00
72038;BME280;59900;50.788;12.904;2023-02-03T04:04:30;97908.47;;;3.66;100.00
72038;BME280;59900;50.788;12.904;2023-02-03T04:06:56;97894.38;;;3.69;100.00
72038;BME280;59900;50.788;12.904;2023-02-03T04:09:21;97878.09;;;3.67;100.00
72038;BME280;59900;50.788;12.904;2023-02-03T04:11:47;97861.41;;;3.69;100.00
72038;BME280;59900;50.788;12.904;2023-02-03T04:14:32;97868.09;;;3.72;100.00
72038;BME280;59900;50.788;12.904;2023-02-03T04:16:58;97861.13;;;3.72;100.00
72038;BME280;59900;50.788;12.904;2023-02-03T04:19:23;97855.63;;;3.75;100.00
72038;BME280;59900;50.788;12.904;2023-02-03T04:21:48;97855.47;;;3.77;100.00
72038;BME280;59900;50.788;12.904;2023-02-03T04:24:13;97847.66;;;3.77;100.00
72038;BME280;59900;50.788;12.904;2023-02-03T04:26:39;97846.44;;;3.81;100.00
72038;BME280;59900;50.788;12.904;2023-02-03T04:29:05;97839.16;;;3.84;100.00
72038;BME280;59900;50.788;12.904;2023-02-03T04:31:30;97824.88;;;3.88;100.00
72038;BME280;59900;50.788;12.904;2023-02-03T04:33:55;97813.38;;;3.91;100.00
72038;BME280;59900;50.788;12.904;2023-02-03T04:36:20;97842.66;;;3.93;100.00
72038;BME280;59900;50.788;12.904;2023-02-03T04:38:47;97837.16;;;3.96;100.00
72038;BME280;59900;50.788;12.904;2023-02-03T04:41:13;97831.69;;;3.99;100.00
72038;BME280;59900;50.788;12.904;2023-02-03T04:43:38;97844.38;;;4.02;100.00
72038;BME280;59900;50.788;12.904;2023-02-03T04:46:03;97828.44;;;4.05;100.00
72038;BME280;59900;50.788;12.904;2023-02-03T04:48:29;97854.03;;;4.10;100.00
72038;BME280;59900;50.788;12.904;2023-02-03T04:50:54;97853.88;;;4.11;100.00
72038;BME280;59900;50.788;12.904;2023-02-03T04:53:19;97868.75;;;4.19;100.00
72038;BME280;59900;50.788;12.904;2023-02-03T04:55:46;97875.28;;;4.23;100.00
72038;BME280;59900;50.788;12.904;2023-02-03T04:58:12;97865.09;;;4.29;100.00
72038;BME280;59900;50.788;12.904;2023-02-03T05:00:37;97882.19;;;4.32;100.00
72038;BME280;59900;50.788;12.904;2023-02-03T05:03:02;97874.19;;;4.25;100.00
72038;BME280;59900;50.788;12.904;2023-02-03T05:05:28;97840.38;;;4.25;100.00
72038;BME280;59900;50.788;12.904;2023-02-03T05:07:53;97837.91;;;4.24;100.00
72038;BME280;59900;50.788;12.904;2023-02-03T05:10:18;97849.13;;;4.24;100.00
72038;BME280;59900;50.788;12.904;2023-02-03T05:12:43;97861.59;;;4.21;100.00
72038;BME280;59900;50.788;12.904;2023-02-03T05:15:09;97882.28;;;4.22;100.00
72038;BME280;59900;50.788;12.904;2023-02-03T05:17:34;97858.06;;;4.22;100.00
72038;BME280;59900;50.788;12.904;2023-02-03T05:20:03;97835.75;;;4.19;100.00
72038;BME280;59900;50.788;12.904;2023-02-03T05:22:28;97833.00;;;4.21;100.00
72038;BME280;59900;50.788;12.904;2023-02-03T05:24:53;97827.97;;;4.19;100.00
72038;BME280;59900;50.788;12.904;2023-02-03T05:27:18;97820.00;;;4.21;100.00
72038;BME280;59900;50.788;12.904;2023-02-03T05:29:44;97847.94;;;4.19;100.00
72038;BME280;59900;50.788;12.904;2023-02-03T05:32:09;97822.75;;;4.19;100.00
72038;BME280;59900;50.788;12.904;2023-02-03T05:34:34;97812.50;;;4.18;100.00
72038;BME280;59900;50.788;12.904;2023-02-03T05:36:59;97808.09;;;4.18;100.00
72038;BME280;59900;50.788;12.904;2023-02-03T05:39:25;97788.25;;;4.17;100.00
72038;BME280;59900;50.788;12.904;2023-02-03T05:41:50;97786.34;;;4.19;100.00
72038;BME280;59900;50.788;12.904;2023-02-03T05:44:23;97794.28;;;4.18;100.00
72038;BME280;59900;50.788;12.904;2023-02-03T05:46:50;97793.31;;;4.19;100.00
72038;BME280;59900;50.788;12.904;2023-02-03T05:49:16;97803.72;;;4.19;100.00
72038;BME280;59900;50.788;12.904;2023-02-03T05:51:41;97788.47;;;4.24;100.00
72038;BME280;59900;50.788;12.904;2023-02-03T05:54:07;97809.28;;;4.24;100.00
72038;BME280;59900;50.788;12.904;2023-02-03T05:56:32;97797.94;;;4.25;100.00
72038;BME280;59900;50.788;12.904;2023-02-03T05:58:58;97803.13;;;4.25;100.00
72038;BME280;59900;50.788;12.904;2023-02-03T06:01:23;97804.91;;;4.24;100.00
72038;BME280;59900;50.788;12.904;2023-02-03T06:03:49;97816.97;;;4.25;100.00
72038;BME280;59900;50.788;12.904;2023-02-03T06:06:14;97802.84;;;4.28;100.00
72038;BME280;59900;50.788;12.904;2023-02-03T06:08:40;97807.75;;;4.31;100.00
72038;BME280;59900;50.788;12.904;2023-02-03T06:11:06;97805.66;;;4.34;100.00
72038;BME280;59900;50.788;12.904;2023-02-03T06:13:31;97811.16;;;4.31;100.00
72038;BME280;59900;50.788;12.904;2023-02-03T06:15:56;97798.00;;;4.33;99.84
72038;BME280;59900;50.788;12.904;2023-02-03T06:18:22;97809.75;;;4.37;99.53
72038;BME280;59900;50.788;12.904;2023-02-03T06:20:47;97812.19;;;4.38;99.83
72038;BME280;59900;50.788;12.904;2023-02-03T06:23:12;97806.84;;;4.40;98.70
72038;BME280;59900;50.788;12.904;2023-02-03T06:25:38;97789.13;;;4.43;98.89
72038;BME280;59900;50.788;12.904;2023-02-03T06:28:03;97766.22;;;4.47;98.76
72038;BME280;59900;50.788;12.904;2023-02-03T06:30:28;97772.25;;;4.47;98.47
72038;BME280;59900;50.788;12.904;2023-02-03T06:32:54;97764.75;;;4.44;98.51
72038;BME280;59900;50.788;12.904;2023-02-03T06:35:19;97765.56;;;4.45;98.39
72038;BME280;59900;50.788;12.904;2023-02-03T06:37:45;97769.94;;;4.44;98.40
72038;BME280;59900;50.788;12.904;2023-02-03T06:40:11;97756.94;;;4.44;98.77
72038;BME280;59900;50.788;12.904;2023-02-03T06:42:36;97760.19;;;4.46;98.87
72038;BME280;59900;50.788;12.904;2023-02-03T06:45:02;97749.13;;;4.44;99.07
72038;BME280;59900;50.788;12.904;2023-02-03T06:47:27;97757.91;;;4.43;98.92
72038;BME280;59900;50.788;12.904;2023-02-03T06:49:52;97741.97;;;4.46;98.58
72038;BME280;59900;50.788;12.904;2023-02-03T06:52:18;97740.06;;;4.48;98.53
72038;BME280;59900;50.788;12.904;2023-02-03T06:54:43;97754.03;;;4.47;98.28
72038;BME280;59900;50.788;12.904;2023-02-03T06:57:08;97738.13;;;4.50;98.08
72038;BME280;59900;50.788;12.904;2023-02-03T06:59:33;97746.56;;;4.52;97.71
72038;BME280;59900;50.788;12.904;2023-02-03T07:01:59;97747.25;;;4.55;97.43
72038;BME280;59900;50.788;12.904;2023-02-03T07:04:24;97739.16;;;4.58;97.48
72038;BME280;59900;50.788;12.904;2023-02-03T07:06:52;97743.53;;;4.57;97.31
72038;BME280;59900;50.788;12.904;2023-02-03T07:09:17;97739.94;;;4.58;97.04
72038;BME280;59900;50.788;12.904;2023-02-03T07:11:42;97722.41;;;4.60;97.10
72038;BME280;59900;50.788;12.904;2023-02-03T07:14:08;97735.25;;;4.62;96.88
72038;BME280;59900;50.788;12.904;2023-02-03T07:16:33;97727.44;;;4.62;96.59
72038;BME280;59900;50.788;12.904;2023-02-03T07:19:00;97729.75;;;4.65;96.66
72038;BME280;59900;50.788;12.904;2023-02-03T07:21:25;97719.50;;;4.63;96.37
72038;BME280;59900;50.788;12.904;2023-02-03T07:23:51;97717.41;;;4.67;96.17
72038;BME280;59900;50.788;12.904;2023-02-03T07:26:16;97717.53;;;4.65;95.75
72038;BME280;59900;50.788;12.904;2023-02-03T07:28:41;97687.78;;;4.68;95.65
72038;BME280;59900;50.788;12.904;2023-02-03T07:31:07;97701.44;;;4.70;95.47
72038;BME280;59900;50.788;12.904;2023-02-03T07:33:34;97709.78;;;4.73;95.31
72038;BME280;59900;50.788;12.904;2023-02-03T07:36:01;97694.97;;;4.74;95.39
72038;BME280;59900;50.788;12.904;2023-02-03T07:38:27;97698.41;;;4.74;95.33
72038;BME280;59900;50.788;12.904;2023-02-03T07:40:52;97690.41;;;4.76;95.50
72038;BME280;59900;50.788;12.904;2023-02-03T07:43:18;97699.22;;;4.75;95.52
72038;BME280;59900;50.788;12.904;2023-02-03T07:45:44;97692.69;;;4.71;95.80
72038;BME280;59900;50.788;12.904;2023-02-03T07:48:10;97685.38;;;4.74;96.13
72038;BME280;59900;50.788;12.904;2023-02-03T07:50:35;97716.75;;;4.73;96.63
72038;BME280;59900;50.788;12.904;2023-02-03T07:53:00;97680.00;;;4.76;96.49
72038;BME280;59900;50.788;12.904;2023-02-03T07:55:26;97692.38;;;4.74;96.38
72038;BME280;59900;50.788;12.904;2023-02-03T07:57:56;97667.81;;;4.76;96.06
72038;BME280;59900;50.788;12.904;2023-02-03T08:00:22;97674.81;;;4.76;96.04
72038;BME280;59900;50.788;12.904;2023-02-03T08:02:47;97679.69;;;4.79;95.45
72038;BME280;59900;50.788;12.904;2023-02-03T08:05:13;97679.69;;;4.79;95.86
72038;BME280;59900;50.788;12.904;2023-02-03T08:07:39;97690.09;;;4.79;95.64
72038;BME280;59900;50.788;12.904;2023-02-03T08:10:05;97689.31;;;4.78;96.52
72038;BME280;59900;50.788;12.904;2023-02-03T08:12:30;97665.06;;;4.78;96.98
72038;BME280;59900;50.788;12.904;2023-02-03T08:14:55;97664.38;;;4.76;97.57
72038;BME280;59900;50.788;12.904;2023-02-03T08:17:21;97679.53;;;4.72;97.66
72038;BME280;59900;50.788;12.904;2023-02-03T08:19:46;97651.84;;;4.71;98.27
72038;BME280;59900;50.788;12.904;2023-02-03T08:22:11;97671.03;;;4.70;97.82
72038;BME280;59900;50.788;12.904;2023-02-03T08:24:43;97651.69;;;4.73;97.76
72038;BME280;59900;50.788;12.904;2023-02-03T08:27:14;97653.31;;;4.74;97.86
72038;BME280;59900;50.788;12.904;2023-02-03T08:29:40;97648.13;;;4.74;98.14
72038;BME280;59900;50.788;12.904;2023-02-03T08:32:08;97657.56;;;4.75;97.27
72038;BME280;59900;50.788;12.904;2023-02-03T08:34:34;97646.03;;;4.77;97.29
72038;BME280;59900;50.788;12.904;2023-02-03T08:36:59;97644.06;;;4.79;97.05
72038;BME280;59900;50.788;12.904;2023-02-03T08:39:24;97650.44;;;4.85;96.37
72038;BME280;59900;50.788;12.904;2023-02-03T08:41:50;97644.91;;;4.88;96.26
72038;BME280;59900;50.788;12.904;2023-02-03T08:44:16;97646.56;;;4.89;96.04
72038;BME280;59900;50.788;12.904;2023-02-03T08:46:43;97653.22;;;4.91;95.37
72038;BME280;59900;50.788;12.904;2023-02-03T08:49:09;97641.69;;;4.94;95.64
72038;BME280;59900;50.788;12.904;2023-02-03T08:51:35;97636.84;;;4.99;94.92
72038;BME280;59900;50.788;12.904;2023-02-03T08:54:01;97637.31;;;5.02;94.12
72038;BME280;59900;50.788;12.904;2023-02-03T08:56:26;97632.78;;;5.04;93.37
72038;BME280;59900;50.788;12.904;2023-02-03T08:58:52;97624.47;;;5.09;93.39
72038;BME280;59900;50.788;12.904;2023-02-03T09:01:17;97623.50;;;5.10;92.73
72038;BME280;59900;50.788;12.904;2023-02-03T09:03:43;97650.19;;;5.12;91.69
72038;BME280;59900;50.788;12.904;2023-02-03T09:06:09;97630.69;;;5.16;91.78
72038;BME280;59900;50.788;12.904;2023-02-03T09:08:37;97616.53;;;5.19;91.15
72038;BME280;59900;50.788;12.904;2023-02-03T09:11:07;97638.81;;;5.21;91.21
72038;BME280;59900;50.788;12.904;2023-02-03T09:13:32;97628.91;;;5.25;91.20
72038;BME280;59900;50.788;12.904;2023-02-03T09:15:59;97621.59;;;5.28;90.86
72038;BME280;59900;50.788;12.904;2023-02-03T09:18:24;97600.06;;;5.26;90.51
72038;BME280;59900;50.788;12.904;2023-02-03T09:20:49;97603.34;;;5.28;90.14
72038;BME280;59900;50.788;12.904;2023-02-03T09:23:15;97604.97;;;5.29;90.56
72038;BME280;59900;50.788;12.904;2023-02-03T09:25:40;97592.63;;;5.31;90.62
72038;BME280;59900;50.788;12.904;2023-02-03T09:28:05;97592.75;;;5.30;90.63
72038;BME280;59900;50.788;12.904;2023-02-03T09:30:30;97586.72;;;5.29;90.81
72038;BME280;59900;50.788;12.904;2023-02-03T09:32:56;97580.56;;;5.30;90.30
72038;BME280;59900;50.788;12.904;2023-02-03T09:35:22;97569.47;;;5.36;89.87
72038;BME280;59900;50.788;12.904;2023-02-03T09:37:48;97553.84;;;5.36;90.22
72038;BME280;59900;50.788;12.904;2023-02-03T09:40:20;97566.69;;;5.38;90.13
72038;BME280;59900;50.788;12.904;2023-02-03T09:45:30;97547.81;;;5.44;89.66
72038;BME280;59900;50.788;12.904;2023-02-03T09:48:01;97531.22;;;5.45;89.61
72038;BME280;59900;50.788;12.904;2023-02-03T09:50:30;97522.44;;;5.46;89.57
72038;BME280;59900;50.788;12.904;2023-02-03T09:52:57;97545.69;;;5.47;89.12
72038;BME280;59900;50.788;12.904;2023-02-03T09:55:35;97524.69;;;5.49;89.48
72038;BME280;59900;50.788;12.904;2023-02-03T09:58:10;97539.34;;;5.50;89.37
72038;BME280;59900;50.788;12.904;2023-02-03T10:01:00;97532.97;;;5.52;89.26
72038;BME280;59900;50.788;12.904;2023-02-03T10:03:43;97538.19;;;5.52;89.41
72038;BME280;59900;50.788;12.904;2023-02-03T10:06:30;97533.97;;;5.51;89.73
72038;BME280;59900;50.788;12.904;2023-02-03T10:09:19;97539.84;;;5.53;89.09
72038;BME280;59900;50.788;12.904;2023-02-03T10:14:45;97540.16;;;5.50;89.53
72038;BME280;59900;50.788;12.904;2023-02-03T10:17:25;97525.16;;;5.52;89.83
72038;BME280;59900;50.788;12.904;2023-02-03T10:20:15;97523.22;;;5.54;89.47
72038;BME280;59900;50.788;12.904;2023-02-03T10:22:50;97531.19;;;5.53;89.41
72038;BME280;59900;50.788;12.904;2023-02-03T10:25:24;97538.88;;;5.54;89.19
72038;BME280;59900;50.788;12.904;2023-02-03T10:27:54;97512.63;;;5.56;88.98
72038;BME280;59900;50.788;12.904;2023-02-03T10:30:25;97500.06;;;5.59;89.22
72038;BME280;59900;50.788;12.904;2023-02-03T10:32:58;97499.09;;;5.60;89.08
72038;BME280;59900;50.788;12.904;2023-02-03T10:35:32;97494.22;;;5.57;89.71
72038;BME280;59900;50.788;12.904;2023-02-03T10:38:00;97502.53;;;5.53;91.17
72038;BME280;59900;50.788;12.904;2023-02-03T10:40:26;97502.22;;;5.48;92.05
72038;BME280;59900;50.788;12.904;2023-02-03T10:42:53;97503.69;;;5.42;93.31
72038;BME280;59900;50.788;12.904;2023-02-03T10:45:38;97522.91;;;5.33;94.90
72038;BME280;59900;50.788;12.904;2023-02-03T10:48:04;97499.28;;;5.27;95.51
72038;BME280;59900;50.788;12.904;2023-02-03T10:50:31;97493.28;;;5.18;97.75
72038;BME280;59900;50.788;12.904;2023-02-03T10:53:25;97461.69;;;5.13;99.05
72038;BME280;59900;50.788;12.904;2023-02-03T10:56:01;97457.78;;;5.09;99.88
72038;BME280;59900;50.788;12.904;2023-02-03T10:58:29;97446.88;;;5.05;100.00
72038;BME280;59900;50.788;12.904;2023-02-03T11:01:37;97446.06;;;5.05;100.00
72038;BME280;59900;50.788;12.904;2023-02-03T11:04:05;97419.69;;;5.00;100.00
72038;BME280;59900;50.788;12.904;2023-02-03T11:06:32;97448.97;;;5.02;100.00
72038;BME280;59900;50.788;12.904;2023-02-03T11:08:58;97435.81;;;5.03;100.00
72038;BME280;59900;50.788;12.904;2023-02-03T11:11:28;97439.22;;;5.04;100.00
72038;BME280;59900;50.788;12.904;2023-02-03T11:16:27;97473.41;;;5.01;100.00
72038;BME280;59900;50.788;12.904;2023-02-03T11:18:55;97447.53;;;4.99;100.00
72038;BME280;59900;50.788;12.904;2023-02-03T11:21:24;97455.50;;;4.98;100.00
72038;BME280;59900;50.788;12.904;2023-02-03T11:26:27;97443.94;;;5.00;100.00
72038;BME280;59900;50.788;12.904;2023-02-03T11:28:56;97446.72;;;4.99;100.00
72038;BME280;59900;50.788;12.904;2023-02-03T11:31:24;97467.38;;;5.00;100.00
72038;BME280;59900;50.788;12.904;2023-02-03T11:33:54;97428.16;;;5.02;100.00
72038;BME280;59900;50.788;12.904;2023-02-03T11:36:20;97431.75;;;5.01;100.00
72038;BME280;59900;50.788;12.904;2023-02-03T11:38:46;97453.88;;;4.97;100.00
72038;BME280;59900;50.788;12.904;2023-02-03T11:41:19;97433.38;;;4.94;100.00
72038;BME280;59900;50.788;12.904;2023-02-03T11:43:46;97422.47;;;4.90;100.00
72038;BME280;59900;50.788;12.904;2023-02-03T11:46:12;97426.06;;;4.89;100.00
72038;BME280;59900;50.788;12.904;2023-02-03T12:00:01;97411.91;;;4.84;100.00
72038;BME280;59900;50.788;12.904;2023-02-03T12:03:10;97405.69;;;4.85;100.00
72038;BME280;59900;50.788;12.904;2023-02-03T12:05:31;97406.69;;;4.84;100.00
72038;BME280;59900;50.788;12.904;2023-02-03T12:11:02;97397.25;;;4.83;100.00
72038;BME280;59900;50.788;12.904;2023-02-03T12:13:42;97388.47;;;4.84;100.00
72038;BME280;59900;50.788;12.904;2023-02-03T12:18:51;97386.69;;;4.84;100.00
72038;BME280;59900;50.788;12.904;2023-02-03T12:21:59;97390.56;;;4.88;100.00
72038;BME280;59900;50.788;12.904;2023-02-03T12:24:37;97405.22;;;4.89;100.00
72038;BME280;59900;50.788;12.904;2023-02-03T12:27:45;97410.44;;;4.89;100.00
72038;BME280;59900;50.788;12.904;2023-02-03T12:30:21;97394.81;;;4.89;100.00
72038;BME280;59900;50.788;12.904;2023-02-03T12:32:52;97403.44;;;4.90;100.00
72038;BME280;59900;50.788;12.904;2023-02-03T12:35:23;97390.09;;;4.93;100.00
72038;BME280;59900;50.788;12.904;2023-02-03T12:37:55;97389.78;;;4.96;100.00
72038;BME280;59900;50.788;12.904;2023-02-03T12:40:38;97390.56;;;4.96;100.00
72038;BME280;59900;50.788;12.904;2023-02-03T12:43:22;97398.88;;;5.00;100.00
72038;BME280;59900;50.788;12.904;2023-02-03T12:45:58;97389.09;;;5.02;100.00
72038;BME280;59900;50.788;12.904;2023-02-03T12:48:30;97376.72;;;5.04;100.00
72038;BME280;59900;50.788;12.904;2023-02-03T12:51:01;97384.69;;;5.02;100.00
72038;BME280;59900;50.788;12.904;2023-02-03T12:53:32;97371.53;;;5.04;100.00
72038;BME280;59900;50.788;12.904;2023-02-03T12:56:09;97363.03;;;5.02;100.00
72038;BME280;59900;50.788;12.904;2023-02-03T12:58:49;97342.56;;;4.99;100.00
72038;BME280;59900;50.788;12.904;2023-02-03T13:01:28;97344.19;;;5.00;100.00
72038;BME280;59900;50.788;12.904;2023-02-03T13:04:05;97334.75;;;4.99;100.00
72038;BME280;59900;50.788;12.904;2023-02-03T13:06:42;97343.53;;;4.98;100.00
72038;BME280;59900;50.788;12.904;2023-02-03T13:09:24;97371.84;;;5.01;100.00
72038;BME280;59900;50.788;12.904;2023-02-03T13:12:10;97324.66;;;5.04;100.00
72038;BME280;59900;50.788;12.904;2023-02-03T13:14:46;97351.97;;;5.08;100.00
72038;BME280;59900;50.788;12.904;2023-02-03T13:17:41;97368.25;;;5.10;100.00
72038;BME280;59900;50.788;12.904;2023-02-03T13:20:16;97364.31;;;5.14;100.00
72038;BME280;59900;50.788;12.904;2023-02-03T13:22:43;97355.03;;;5.20;100.00
72038;BME280;59900;50.788;12.904;2023-02-03T13:25:26;97354.38;;;5.26;100.00
72038;BME280;59900;50.788;12.904;2023-02-03T13:28:29;97356.50;;;5.30;100.00
72038;BME280;59900;50.788;12.904;2023-02-03T13:33:47;97365.56;;;5.42;100.00
72038;BME280;59900;50.788;12.904;2023-02-03T13:36:37;97402.22;;;5.49;100.00
72038;BME280;59900;50.788;12.904;2023-02-03T13:44:41;97433.09;;;5.68;100.00
72038;BME280;59900;50.788;12.904;2023-02-03T13:47:18;97400.31;;;5.74;100.00
72038;BME280;59900;50.788;12.904;2023-02-03T13:49:51;97449.19;;;5.80;100.00
72038;BME280;59900;50.788;12.904;2023-02-03T13:52:32;97427.00;;;5.92;100.00